METAR Data
IDs: Format: Raw Decoded Include TAF

Data at: 1132 UTC 28 Sep 2021

EGAC 281120Z AUTO 22009KT 200V270 9999 NCD 14/07 Q1007